sensor_id;sensor_type;location;lat;lon;timestamp;P1;P2;P0
77411;PMS7003;66484;49.968;19.140;2023-05-16T00:00:20;11.67;6.00;4.67
77411;PMS7003;66484;49.968;19.140;2023-05-16T00:03:08;9.00;9.00;8.33
77411;PMS7003;66484;49.968;19.140;2023-05-16T00:05:37;9.00;9.00;6.33
77411;PMS7003;66484;49.968;19.140;2023-05-16T00:08:05;10.00;10.00;7.00
77411;PMS7003;66484;49.968;19.140;2023-05-16T00:10:32;10.00;10.00;7.00
77411;PMS7003;66484;49.968;19.140;2023-05-16T00:15:55;9.00;9.00;3.00
77411;PMS7003;66484;49.968;19.140;2023-05-16T00:18:23;11.33;11.33;10.00
77411;PMS7003;66484;49.968;19.140;2023-05-16T00:20:51;9.00;9.00;6.00
77411;PMS7003;66484;49.968;19.140;2023-05-16T00:23:20;10.33;7.00;6.00
77411;PMS7003;66484;49.968;19.140;2023-05-16T00:25:47;8.33;8.33;7.00
77411;PMS7003;66484;49.968;19.140;2023-05-16T00:28:15;10.33;10.33;8.33
77411;PMS7003;66484;49.968;19.140;2023-05-16T00:30:42;8.33;8.33;6.67
77411;PMS7003;66484;49.968;19.140;2023-05-16T00:33:11;6.67;5.67;5.00
77411;PMS7003;66484;49.968;19.140;2023-05-16T00:35:38;10.67;10.67;6.00
77411;PMS7003;66484;49.968;19.140;2023-05-16T00:38:05;12.67;12.67;9.33
77411;PMS7003;66484;49.968;19.140;2023-05-16T00:40:32;13.00;12.00;7.33
77411;PMS7003;66484;49.968;19.140;2023-05-16T00:43:00;10.00;10.00;7.67
77411;PMS7003;66484;49.968;19.140;2023-05-16T00:45:27;10.67;10.67;8.00
77411;PMS7003;66484;49.968;19.140;2023-05-16T00:47:54;15.33;13.00;10.00
77411;PMS7003;66484;49.968;19.140;2023-05-16T00:50:21;12.00;12.00;10.00
77411;PMS7003;66484;49.968;19.140;2023-05-16T00:52:49;16.00;12.67;11.00
77411;PMS7003;66484;49.968;19.140;2023-05-16T00:55:16;10.33;10.33;7.33
77411;PMS7003;66484;49.968;19.140;2023-05-16T00:57:43;11.33;11.33;9.33
77411;PMS7003;66484;49.968;19.140;2023-05-16T01:00:10;13.00;11.00;8.67
77411;PMS7003;66484;49.968;19.140;2023-05-16T01:02:38;16.00;16.00;10.00
77411;PMS7003;66484;49.968;19.140;2023-05-16T01:05:06;17.00;14.00;12.00
77411;PMS7003;66484;49.968;19.140;2023-05-16T01:07:36;10.67;10.67;7.67
77411;PMS7003;66484;49.968;19.140;2023-05-16T01:10:04;13.33;13.00;10.33
77411;PMS7003;66484;49.968;19.140;2023-05-16T01:12:47;13.67;11.67;9.33
77411;PMS7003;66484;49.968;19.140;2023-05-16T01:15:24;21.67;18.00;12.33
77411;PMS7003;66484;49.968;19.140;2023-05-16T01:21:00;15.33;15.33;11.33
77411;PMS7003;66484;49.968;19.140;2023-05-16T01:26:26;25.25;19.25;14.00
77411;PMS7003;66484;49.968;19.140;2023-05-16T01:28:54;17.33;17.33;10.67
77411;PMS7003;66484;49.968;19.140;2023-05-16T01:31:22;16.00;16.00;12.00
77411;PMS7003;66484;49.968;19.140;2023-05-16T01:33:50;17.00;14.67;13.00
77411;PMS7003;66484;49.968;19.140;2023-05-16T01:36:32;18.33;15.33;13.33
77411;PMS7003;66484;49.968;19.140;2023-05-16T01:39:21;10.33;10.33;7.00
77411;PMS7003;66484;49.968;19.140;2023-05-16T01:47:34;10.33;10.33;8.00
77411;PMS7003;66484;49.968;19.140;2023-05-16T01:50:12;14.00;13.00;10.67
77411;PMS7003;66484;49.968;19.140;2023-05-16T01:55:14;13.67;12.67;8.00
77411;PMS7003;66484;49.968;19.140;2023-05-16T01:57:44;12.67;10.33;7.67
77411;PMS7003;66484;49.968;19.140;2023-05-16T02:00:12;12.67;11.33;7.67
77411;PMS7003;66484;49.968;19.140;2023-05-16T02:02:39;11.67;11.67;9.33
77411;PMS7003;66484;49.968;19.140;2023-05-16T02:05:06;14.33;14.33;11.33
77411;PMS7003;66484;49.968;19.140;2023-05-16T02:07:34;10.67;10.67;8.67
77411;PMS7003;66484;49.968;19.140;2023-05-16T02:10:01;12.67;11.67;9.00
77411;PMS7003;66484;49.968;19.140;2023-05-16T02:12:28;13.33;12.67;9.00
77411;PMS7003;66484;49.968;19.140;2023-05-16T02:14:55;12.00;12.00;7.67
77411;PMS7003;66484;49.968;19.140;2023-05-16T02:17:22;12.00;12.00;9.00
77411;PMS7003;66484;49.968;19.140;2023-05-16T02:19:50;10.33;10.33;9.00
77411;PMS7003;66484;49.968;19.140;2023-05-16T02:22:17;11.00;9.00;6.33
77411;PMS7003;66484;49.968;19.140;2023-05-16T02:24:44;13.67;12.67;8.33
77411;PMS7003;66484;49.968;19.140;2023-05-16T02:27:11;10.00;10.00;6.00
77411;PMS7003;66484;49.968;19.140;2023-05-16T02:29:38;11.67;10.67;8.00
77411;PMS7003;66484;49.968;19.140;2023-05-16T02:32:06;12.67;12.67;8.33
77411;PMS7003;66484;49.968;19.140;2023-05-16T02:34:33;12.33;11.33;9.00
77411;PMS7003;66484;49.968;19.140;2023-05-16T02:37:00;14.67;13.33;9.33
77411;PMS7003;66484;49.968;19.140;2023-05-16T02:39:28;11.00;11.00;9.67
77411;PMS7003;66484;49.968;19.140;2023-05-16T02:41:55;17.33;13.33;11.00
77411;PMS7003;66484;49.968;19.140;2023-05-16T02:44:23;11.67;11.67;9.33
77411;PMS7003;66484;49.968;19.140;2023-05-16T02:46:50;13.00;13.00;10.67
77411;PMS7003;66484;49.968;19.140;2023-05-16T02:49:17;15.00;15.00;10.33
77411;PMS7003;66484;49.968;19.140;2023-05-16T02:51:44;15.00;14.33;12.00
77411;PMS7003;66484;49.968;19.140;2023-05-16T02:54:12;16.00;16.00;11.33
77411;PMS7003;66484;49.968;19.140;2023-05-16T02:56:39;14.00;14.00;10.33
77411;PMS7003;66484;49.968;19.140;2023-05-16T02:59:06;12.00;12.00;8.67
77411;PMS7003;66484;49.968;19.140;2023-05-16T03:01:34;19.33;15.33;12.00
77411;PMS7003;66484;49.968;19.140;2023-05-16T03:04:01;16.00;14.33;13.00
77411;PMS7003;66484;49.968;19.140;2023-05-16T03:06:29;18.33;16.33;13.00
77411;PMS7003;66484;49.968;19.140;2023-05-16T03:08:56;15.50;15.50;11.50
77411;PMS7003;66484;49.968;19.140;2023-05-16T03:11:23;19.75;16.25;11.75
77411;PMS7003;66484;49.968;19.140;2023-05-16T03:13:51;18.25;17.75;12.75
77411;PMS7003;66484;49.968;19.140;2023-05-16T03:16:18;19.25;16.50;13.00
77411;PMS7003;66484;49.968;19.140;2023-05-16T03:18:46;14.75;14.25;11.50
77411;PMS7003;66484;49.968;19.140;2023-05-16T03:21:13;19.33;18.00;10.33
77411;PMS7003;66484;49.968;19.140;2023-05-16T03:23:41;20.00;18.25;12.00
77411;PMS7003;66484;49.968;19.140;2023-05-16T03:26:09;12.67;11.00;8.33
77411;PMS7003;66484;49.968;19.140;2023-05-16T03:28:36;17.00;15.75;11.50
77411;PMS7003;66484;49.968;19.140;2023-05-16T03:31:03;20.00;16.00;10.67
77411;PMS7003;66484;49.968;19.140;2023-05-16T03:33:31;16.00;16.00;13.00
77411;PMS7003;66484;49.968;19.140;2023-05-16T03:35:58;21.00;19.33;13.67
77411;PMS7003;66484;49.968;19.140;2023-05-16T03:38:25;19.00;17.33;11.67
77411;PMS7003;66484;49.968;19.140;2023-05-16T03:40:52;16.67;16.67;13.00
77411;PMS7003;66484;49.968;19.140;2023-05-16T03:43:20;22.25;20.00;15.75
77411;PMS7003;66484;49.968;19.140;2023-05-16T03:45:47;27.75;27.75;19.25
77411;PMS7003;66484;49.968;19.140;2023-05-16T03:48:14;26.50;23.00;18.75
77411;PMS7003;66484;49.968;19.140;2023-05-16T03:50:41;23.67;23.67;15.67
77411;PMS7003;66484;49.968;19.140;2023-05-16T03:53:09;26.67;22.67;14.00
77411;PMS7003;66484;49.968;19.140;2023-05-16T03:55:36;25.67;21.33;15.00
77411;PMS7003;66484;49.968;19.140;2023-05-16T03:58:03;23.00;20.67;11.67
77411;PMS7003;66484;49.968;19.140;2023-05-16T04:00:31;22.33;20.67;14.67
77411;PMS7003;66484;49.968;19.140;2023-05-16T04:03:00;15.00;13.33;10.00
77411;PMS7003;66484;49.968;19.140;2023-05-16T04:05:27;23.67;20.67;14.00
77411;PMS7003;66484;49.968;19.140;2023-05-16T04:07:55;16.67;16.67;13.33
77411;PMS7003;66484;49.968;19.140;2023-05-16T04:10:23;15.67;14.33;11.67
77411;PMS7003;66484;49.968;19.140;2023-05-16T04:12:50;24.33;22.33;16.33
77411;PMS7003;66484;49.968;19.140;2023-05-16T04:15:17;17.00;14.00;10.67
77411;PMS7003;66484;49.968;19.140;2023-05-16T04:17:45;21.00;20.33;14.67
77411;PMS7003;66484;49.968;19.140;2023-05-16T04:20:12;21.00;19.67;13.33
77411;PMS7003;66484;49.968;19.140;2023-05-16T04:22:39;20.67;20.33;12.33
77411;PMS7003;66484;49.968;19.140;2023-05-16T04:25:07;33.67;25.67;15.33
77411;PMS7003;66484;49.968;19.140;2023-05-16T04:27:35;24.33;21.00;14.00
77411;PMS7003;66484;49.968;19.140;2023-05-16T04:30:02;24.33;20.00;12.33
77411;PMS7003;66484;49.968;19.140;2023-05-16T04:32:30;27.33;22.00;15.00
77411;PMS7003;66484;49.968;19.140;2023-05-16T04:35:00;21.67;17.33;14.00
77411;PMS7003;66484;49.968;19.140;2023-05-16T04:37:27;30.33;24.67;17.67
77411;PMS7003;66484;49.968;19.140;2023-05-16T04:39:54;20.00;16.67;12.33
77411;PMS7003;66484;49.968;19.140;2023-05-16T04:42:21;17.67;17.67;12.00
77411;PMS7003;66484;49.968;19.140;2023-05-16T04:44:49;14.67;14.67;10.67
77411;PMS7003;66484;49.968;19.140;2023-05-16T04:47:17;20.67;18.33;14.00
77411;PMS7003;66484;49.968;19.140;2023-05-16T04:49:44;15.67;15.67;9.67
77411;PMS7003;66484;49.968;19.140;2023-05-16T04:52:11;13.00;13.00;11.00
77411;PMS7003;66484;49.968;19.140;2023-05-16T04:54:38;16.33;14.00;11.67
77411;PMS7003;66484;49.968;19.140;2023-05-16T04:57:06;15.00;13.67;11.67
77411;PMS7003;66484;49.968;19.140;2023-05-16T04:59:33;11.67;11.67;7.33
77411;PMS7003;66484;49.968;19.140;2023-05-16T05:02:00;13.33;11.67;9.00
77411;PMS7003;66484;49.968;19.140;2023-05-16T05:04:27;16.00;14.00;11.33
77411;PMS7003;66484;49.968;19.140;2023-05-16T05:06:55;14.00;11.67;7.67
77411;PMS7003;66484;49.968;19.140;2023-05-16T05:09:22;17.00;17.00;11.33
77411;PMS7003;66484;49.968;19.140;2023-05-16T05:11:49;13.00;12.67;9.00
77411;PMS7003;66484;49.968;19.140;2023-05-16T05:14:16;12.33;11.33;8.00
77411;PMS7003;66484;49.968;19.140;2023-05-16T05:16:44;14.00;14.00;10.33
77411;PMS7003;66484;49.968;19.140;2023-05-16T05:19:11;16.00;14.00;9.00
77411;PMS7003;66484;49.968;19.140;2023-05-16T05:21:38;13.67;12.67;9.33
77411;PMS7003;66484;49.968;19.140;2023-05-16T05:24:06;13.00;13.00;8.33
77411;PMS7003;66484;49.968;19.140;2023-05-16T05:26:33;14.00;13.00;8.67
77411;PMS7003;66484;49.968;19.140;2023-05-16T05:29:00;14.00;13.00;11.00
77411;PMS7003;66484;49.968;19.140;2023-05-16T05:31:32;13.00;11.33;8.67
77411;PMS7003;66484;49.968;19.140;2023-05-16T05:34:01;8.67;8.67;7.00
77411;PMS7003;66484;49.968;19.140;2023-05-16T05:36:29;12.67;12.67;10.33
77411;PMS7003;66484;49.968;19.140;2023-05-16T05:38:56;17.00;17.00;10.67
77411;PMS7003;66484;49.968;19.140;2023-05-16T05:41:24;17.67;14.67;9.67
77411;PMS7003;66484;49.968;19.140;2023-05-16T05:43:52;9.00;9.00;7.00
77411;PMS7003;66484;49.968;19.140;2023-05-16T05:46:20;9.00;8.67;6.33
77411;PMS7003;66484;49.968;19.140;2023-05-16T05:48:47;9.50;9.50;7.00
77411;PMS7003;66484;49.968;19.140;2023-05-16T05:51:14;10.00;10.00;8.00
77411;PMS7003;66484;49.968;19.140;2023-05-16T05:53:42;13.50;11.75;8.25
77411;PMS7003;66484;49.968;19.140;2023-05-16T05:56:10;13.00;11.00;8.75
77411;PMS7003;66484;49.968;19.140;2023-05-16T05:58:37;11.00;9.00;6.00
77411;PMS7003;66484;49.968;19.140;2023-05-16T06:01:05;10.25;10.00;7.00
77411;PMS7003;66484;49.968;19.140;2023-05-16T06:03:32;16.75;11.75;9.00
77411;PMS7003;66484;49.968;19.140;2023-05-16T06:05:59;10.25;10.25;8.50
77411;PMS7003;66484;49.968;19.140;2023-05-16T06:08:26;8.00;8.00;6.00
77411;PMS7003;66484;49.968;19.140;2023-05-16T06:10:54;9.75;8.75;7.00
77411;PMS7003;66484;49.968;19.140;2023-05-16T06:13:21;10.00;10.00;6.00
77411;PMS7003;66484;49.968;19.140;2023-05-16T06:15:49;9.00;8.25;6.75
77411;PMS7003;66484;49.968;19.140;2023-05-16T06:18:19;11.75;10.75;8.00
77411;PMS7003;66484;49.968;19.140;2023-05-16T06:20:47;8.50;8.50;6.50
77411;PMS7003;66484;49.968;19.140;2023-05-16T06:23:14;6.00;6.00;5.25
77411;PMS7003;66484;49.968;19.140;2023-05-16T06:25:42;8.75;8.75;7.00
77411;PMS7003;66484;49.968;19.140;2023-05-16T06:28:09;7.75;7.75;7.25
77411;PMS7003;66484;49.968;19.140;2023-05-16T06:30:36;8.00;6.25;4.25
77411;PMS7003;66484;49.968;19.140;2023-05-16T06:33:03;9.25;7.00;5.00
77411;PMS7003;66484;49.968;19.140;2023-05-16T06:35:31;9.50;9.50;6.50
77411;PMS7003;66484;49.968;19.140;2023-05-16T06:37:58;7.50;6.00;4.75
77411;PMS7003;66484;49.968;19.140;2023-05-16T06:40:26;8.25;6.50;4.25
77411;PMS7003;66484;49.968;19.140;2023-05-16T06:42:53;8.25;8.00;6.25
77411;PMS7003;66484;49.968;19.140;2023-05-16T06:45:21;7.75;7.75;6.75
77411;PMS7003;66484;49.968;19.140;2023-05-16T06:47:48;10.25;10.25;7.25
77411;PMS7003;66484;49.968;19.140;2023-05-16T06:50:15;9.75;8.75;6.25
77411;PMS7003;66484;49.968;19.140;2023-05-16T06:52:42;12.25;10.00;7.75
77411;PMS7003;66484;49.968;19.140;2023-05-16T06:55:10;9.75;8.75;7.00
77411;PMS7003;66484;49.968;19.140;2023-05-16T06:57:38;11.50;11.50;9.50
77411;PMS7003;66484;49.968;19.140;2023-05-16T07:00:05;10.75;9.25;7.50
77411;PMS7003;66484;49.968;19.140;2023-05-16T07:02:33;11.75;11.00;8.50
77411;PMS7003;66484;49.968;19.140;2023-05-16T07:05:02;17.50;14.75;10.50
77411;PMS7003;66484;49.968;19.140;2023-05-16T07:07:29;13.00;11.25;8.00
77411;PMS7003;66484;49.968;19.140;2023-05-16T07:09:56;11.00;9.50;8.00
77411;PMS7003;66484;49.968;19.140;2023-05-16T07:12:24;10.75;10.00;7.50
77411;PMS7003;66484;49.968;19.140;2023-05-16T07:14:52;11.00;11.00;9.25
77411;PMS7003;66484;49.968;19.140;2023-05-16T07:17:19;14.75;12.75;9.25
77411;PMS7003;66484;49.968;19.140;2023-05-16T07:19:47;11.75;10.50;8.00
77411;PMS7003;66484;49.968;19.140;2023-05-16T07:22:14;11.00;11.00;8.50
77411;PMS7003;66484;49.968;19.140;2023-05-16T07:24:41;13.00;12.50;9.00
77411;PMS7003;66484;49.968;19.140;2023-05-16T07:27:08;11.00;11.00;8.75
77411;PMS7003;66484;49.968;19.140;2023-05-16T07:29:37;9.25;9.25;7.50
77411;PMS7003;66484;49.968;19.140;2023-05-16T07:32:04;11.50;11.00;9.00
77411;PMS7003;66484;49.968;19.140;2023-05-16T07:34:32;14.75;12.25;8.25
77411;PMS7003;66484;49.968;19.140;2023-05-16T07:36:59;15.25;13.00;8.00
77411;PMS7003;66484;49.968;19.140;2023-05-16T07:39:27;11.00;11.00;9.00
77411;PMS7003;66484;49.968;19.140;2023-05-16T07:41:54;12.00;11.00;8.50
77411;PMS7003;66484;49.968;19.140;2023-05-16T07:44:22;13.25;11.75;9.75
77411;PMS7003;66484;49.968;19.140;2023-05-16T07:46:49;11.75;11.75;9.25
77411;PMS7003;66484;49.968;19.140;2023-05-16T07:49:17;9.00;8.00;5.00
77411;PMS7003;66484;49.968;19.140;2023-05-16T07:51:44;11.75;11.75;8.25
77411;PMS7003;66484;49.968;19.140;2023-05-16T07:54:13;14.00;14.00;9.00
77411;PMS7003;66484;49.968;19.140;2023-05-16T07:56:40;16.25;14.50;12.25
77411;PMS7003;66484;49.968;19.140;2023-05-16T07:59:07;11.75;11.75;8.00
77411;PMS7003;66484;49.968;19.140;2023-05-16T08:01:35;11.25;10.50;8.00
77411;PMS7003;66484;49.968;19.140;2023-05-16T08:04:03;15.25;12.50;8.25
77411;PMS7003;66484;49.968;19.140;2023-05-16T08:06:30;13.50;13.50;11.00
77411;PMS7003;66484;49.968;19.140;2023-05-16T08:08:58;13.50;12.00;11.00
77411;PMS7003;66484;49.968;19.140;2023-05-16T08:11:25;13.75;12.00;10.75
77411;PMS7003;66484;49.968;19.140;2023-05-16T08:13:53;15.25;13.50;10.00
77411;PMS7003;66484;49.968;19.140;2023-05-16T08:16:19;13.25;13.25;10.50
77411;PMS7003;66484;49.968;19.140;2023-05-16T08:18:47;14.00;12.75;8.75
77411;PMS7003;66484;49.968;19.140;2023-05-16T08:21:14;11.50;10.25;8.25
77411;PMS7003;66484;49.968;19.140;2023-05-16T08:23:42;12.25;12.25;9.75
77411;PMS7003;66484;49.968;19.140;2023-05-16T08:26:09;12.75;10.00;9.25
77411;PMS7003;66484;49.968;19.140;2023-05-16T08:28:37;13.50;12.00;9.00
77411;PMS7003;66484;49.968;19.140;2023-05-16T08:31:04;15.25;15.25;11.50
77411;PMS7003;66484;49.968;19.140;2023-05-16T08:33:31;12.00;11.75;9.25
77411;PMS7003;66484;49.968;19.140;2023-05-16T08:35:58;14.25;12.00;8.00
77411;PMS7003;66484;49.968;19.140;2023-05-16T08:38:27;10.25;10.25;9.25
77411;PMS7003;66484;49.968;19.140;2023-05-16T08:40:55;13.75;13.25;11.00
77411;PMS7003;66484;49.968;19.140;2023-05-16T08:43:22;12.75;12.75;9.00
77411;PMS7003;66484;49.968;19.140;2023-05-16T08:45:49;15.00;12.50;8.00
77411;PMS7003;66484;49.968;19.140;2023-05-16T08:48:17;12.25;10.25;8.25
77411;PMS7003;66484;49.968;19.140;2023-05-16T08:50:48;12.00;12.00;10.00
77411;PMS7003;66484;49.968;19.140;2023-05-16T08:53:16;13.50;13.50;10.00
77411;PMS7003;66484;49.968;19.140;2023-05-16T08:55:47;13.50;13.50;9.50
77411;PMS7003;66484;49.968;19.140;2023-05-16T08:58:15;12.75;11.75;9.00
77411;PMS7003;66484;49.968;19.140;2023-05-16T09:00:43;14.75;13.00;10.25
77411;PMS7003;66484;49.968;19.140;2023-05-16T09:03:11;13.25;11.25;10.00
77411;PMS7003;66484;49.968;19.140;2023-05-16T09:05:39;14.50;11.50;8.25
77411;PMS7003;66484;49.968;19.140;2023-05-16T09:08:07;13.75;13.75;9.75
77411;PMS7003;66484;49.968;19.140;2023-05-16T09:10:34;13.00;12.75;9.00
77411;PMS7003;66484;49.968;19.140;2023-05-16T09:13:01;14.50;13.50;11.00
77411;PMS7003;66484;49.968;19.140;2023-05-16T09:15:30;11.25;9.75;8.75
77411;PMS7003;66484;49.968;19.140;2023-05-16T09:18:01;9.75;9.75;8.00
77411;PMS7003;66484;49.968;19.140;2023-05-16T09:20:29;12.75;12.75;10.00
77411;PMS7003;66484;49.968;19.140;2023-05-16T09:22:57;13.25;13.25;11.25
77411;PMS7003;66484;49.968;19.140;2023-05-16T09:25:26;13.75;12.75;9.25
77411;PMS7003;66484;49.968;19.140;2023-05-16T09:27:58;11.25;11.25;10.00
77411;PMS7003;66484;49.968;19.140;2023-05-16T09:30:32;13.50;12.25;10.25
77411;PMS7003;66484;49.968;19.140;2023-05-16T09:33:00;12.75;11.75;9.00
77411;PMS7003;66484;49.968;19.140;2023-05-16T09:35:29;15.50;14.50;11.50
77411;PMS7003;66484;49.968;19.140;2023-05-16T09:38:14;14.25;14.25;9.50
77411;PMS7003;66484;49.968;19.140;2023-05-16T09:40:43;14.00;13.00;10.50
77411;PMS7003;66484;49.968;19.140;2023-05-16T09:43:13;16.00;14.25;10.75
77411;PMS7003;66484;49.968;19.140;2023-05-16T09:45:46;13.00;13.00;8.00
77411;PMS7003;66484;49.968;19.140;2023-05-16T09:48:15;12.50;12.50;9.25
77411;PMS7003;66484;49.968;19.140;2023-05-16T09:50:48;13.00;12.00;9.75
77411;PMS7003;66484;49.968;19.140;2023-05-16T09:53:24;15.50;14.25;11.75
77411;PMS7003;66484;49.968;19.140;2023-05-16T09:56:00;14.50;14.50;12.00
77411;PMS7003;66484;49.968;19.140;2023-05-16T09:58:32;10.25;9.75;8.50
77411;PMS7003;66484;49.968;19.140;2023-05-16T10:01:00;14.50;14.50;10.25
77411;PMS7003;66484;49.968;19.140;2023-05-16T10:03:28;8.00;8.00;6.00
77411;PMS7003;66484;49.968;19.140;2023-05-16T10:05:56;9.00;9.00;7.75
77411;PMS7003;66484;49.968;19.140;2023-05-16T10:08:24;11.00;11.00;8.25
77411;PMS7003;66484;49.968;19.140;2023-05-16T10:10:53;14.50;13.50;10.50
77411;PMS7003;66484;49.968;19.140;2023-05-16T10:13:31;12.00;12.00;8.50
77411;PMS7003;66484;49.968;19.140;2023-05-16T10:16:01;12.25;11.25;8.75
77411;PMS7003;66484;49.968;19.140;2023-05-16T10:18:41;13.50;13.50;9.75
77411;PMS7003;66484;49.968;19.140;2023-05-16T10:21:14;10.75;10.75;8.25
77411;PMS7003;66484;49.968;19.140;2023-05-16T10:23:45;10.00;10.00;8.25
77411;PMS7003;66484;49.968;19.140;2023-05-16T10:26:15;10.50;9.50;8.75
77411;PMS7003;66484;49.968;19.140;2023-05-16T10:28:43;10.00;10.00;8.00
77411;PMS7003;66484;49.968;19.140;2023-05-16T10:31:11;10.75;10.75;7.75
77411;PMS7003;66484;49.968;19.140;2023-05-16T10:33:40;13.50;12.25;9.25
77411;PMS7003;66484;49.968;19.140;2023-05-16T10:36:08;10.25;10.25;8.00
77411;PMS7003;66484;49.968;19.140;2023-05-16T10:38:37;11.75;10.50;8.00
77411;PMS7003;66484;49.968;19.140;2023-05-16T10:41:05;12.75;12.75;8.50
77411;PMS7003;66484;49.968;19.140;2023-05-16T10:43:33;12.50;12.50;11.50
77411;PMS7003;66484;49.968;19.140;2023-05-16T10:46:01;11.75;11.75;9.00
77411;PMS7003;66484;49.968;19.140;2023-05-16T10:48:31;14.50;13.75;10.00
77411;PMS7003;66484;49.968;19.140;2023-05-16T10:51:00;7.25;7.25;4.25
77411;PMS7003;66484;49.968;19.140;2023-05-16T10:53:32;11.75;11.25;8.75
77411;PMS7003;66484;49.968;19.140;2023-05-16T10:56:05;14.00;14.00;10.00
77411;PMS7003;66484;49.968;19.140;2023-05-16T11:06:27;14.75;14.50;12.00
77411;PMS7003;66484;49.968;19.140;2023-05-16T11:14:36;16.25;14.75;10.00
77411;PMS7003;66484;49.968;19.140;2023-05-16T11:17:09;12.00;12.00;10.00
77411;PMS7003;66484;49.968;19.140;2023-05-16T11:19:39;13.25;13.25;11.00
77411;PMS7003;66484;49.968;19.140;2023-05-16T11:24:56;9.50;9.50;7.75
77411;PMS7003;66484;49.968;19.140;2023-05-16T11:27:41;9.25;9.25;7.00
77411;PMS7003;66484;49.968;19.140;2023-05-16T11:30:11;10.50;10.50;8.00
77411;PMS7003;66484;49.968;19.140;2023-05-16T11:32:44;7.00;7.00;5.50
77411;PMS7003;66484;49.968;19.140;2023-05-16T11:35:14;8.00;7.75;5.50
77411;PMS7003;66484;49.968;19.140;2023-05-16T11:37:46;11.00;10.00;7.00
77411;PMS7003;66484;49.968;19.140;2023-05-16T11:40:13;11.75;11.75;9.75
77411;PMS7003;66484;49.968;19.140;2023-05-16T11:42:43;11.50;10.50;8.25
77411;PMS7003;66484;49.968;19.140;2023-05-16T11:45:14;13.50;13.25;8.75
77411;PMS7003;66484;49.968;19.140;2023-05-16T11:47:43;11.25;11.25;8.50
77411;PMS7003;66484;49.968;19.140;2023-05-16T11:50:17;9.75;9.00;7.25
77411;PMS7003;66484;49.968;19.140;2023-05-16T11:52:46;9.00;9.00;8.00
77411;PMS7003;66484;49.968;19.140;2023-05-16T11:55:15;12.25;10.75;9.00
77411;PMS7003;66484;49.968;19.140;2023-05-16T11:58:04;14.25;14.00;9.00
77411;PMS7003;66484;49.968;19.140;2023-05-16T12:00:35;12.75;10.75;9.25
77411;PMS7003;66484;49.968;19.140;2023-05-16T12:03:04;14.25;13.25;10.25
77411;PMS7003;66484;49.968;19.140;2023-05-16T12:05:32;11.25;11.25;9.25
77411;PMS7003;66484;49.968;19.140;2023-05-16T12:08:01;14.25;14.25;11.00
77411;PMS7003;66484;49.968;19.140;2023-05-16T12:10:31;15.25;14.00;10.00
77411;PMS7003;66484;49.968;19.140;2023-05-16T12:13:02;13.75;13.75;11.00
77411;PMS7003;66484;49.968;19.140;2023-05-16T12:15:31;14.25;14.00;10.00
77411;PMS7003;66484;49.968;19.140;2023-05-16T12:17:58;15.75;15.25;13.00
77411;PMS7003;66484;49.968;19.140;2023-05-16T12:20:26;13.50;12.00;8.50
77411;PMS7003;66484;49.968;19.140;2023-05-16T12:22:56;13.50;13.25;10.25
77411;PMS7003;66484;49.968;19.140;2023-05-16T12:25:28;12.00;10.50;8.75
77411;PMS7003;66484;49.968;19.140;2023-05-16T12:28:01;13.50;13.25;9.25
77411;PMS7003;66484;49.968;19.140;2023-05-16T12:30:33;13.25;13.25;10.00
77411;PMS7003;66484;49.968;19.140;2023-05-16T12:33:01;13.50;13.50;10.25
77411;PMS7003;66484;49.968;19.140;2023-05-16T12:35:34;9.75;9.75;8.25
77411;PMS7003;66484;49.968;19.140;2023-05-16T12:38:03;13.00;12.25;9.25
77411;PMS7003;66484;49.968;19.140;2023-05-16T12:40:31;14.25;14.25;11.00
77411;PMS7003;66484;49.968;19.140;2023-05-16T12:42:59;12.00;9.75;8.25
77411;PMS7003;66484;49.968;19.140;2023-05-16T12:45:27;13.25;12.75;11.00
77411;PMS7003;66484;49.968;19.140;2023-05-16T12:47:55;12.75;11.75;9.00
77411;PMS7003;66484;49.968;19.140;2023-05-16T12:50:25;15.75;15.75;12.75
77411;PMS7003;66484;49.968;19.140;2023-05-16T12:52:57;14.00;14.00;11.00
77411;PMS7003;66484;49.968;19.140;2023-05-16T12:55:26;13.50;13.50;11.50
77411;PMS7003;66484;49.968;19.140;2023-05-16T12:57:54;14.00;12.50;10.25
77411;PMS7003;66484;49.968;19.140;2023-05-16T13:00:24;14.25;12.75;9.50
77411;PMS7003;66484;49.968;19.140;2023-05-16T13:02:53;18.25;16.00;11.50
77411;PMS7003;66484;49.968;19.140;2023-05-16T13:05:21;12.00;12.00;9.25
77411;PMS7003;66484;49.968;19.140;2023-05-16T13:07:49;13.00;13.00;10.25
77411;PMS7003;66484;49.968;19.140;2023-05-16T13:10:17;9.00;9.00;7.75
77411;PMS7003;66484;49.968;19.140;2023-05-16T13:12:45;12.50;11.25;10.00
77411;PMS7003;66484;49.968;19.140;2023-05-16T13:15:13;15.50;14.50;11.25
77411;PMS7003;66484;49.968;19.140;2023-05-16T13:17:42;14.00;14.00;10.00
77411;PMS7003;66484;49.968;19.140;2023-05-16T13:20:11;16.25;15.00;10.75
77411;PMS7003;66484;49.968;19.140;2023-05-16T13:22:41;18.75;13.25;9.50
77411;PMS7003;66484;49.968;19.140;2023-05-16T13:25:10;12.00;12.00;8.00
77411;PMS7003;66484;49.968;19.140;2023-05-16T13:27:39;13.25;13.25;10.25
77411;PMS7003;66484;49.968;19.140;2023-05-16T13:30:09;12.25;12.25;10.50
77411;PMS7003;66484;49.968;19.140;2023-05-16T13:32:38;9.00;8.00;7.00
77411;PMS7003;66484;49.968;19.140;2023-05-16T13:35:06;14.75;12.50;10.75
77411;PMS7003;66484;49.968;19.140;2023-05-16T13:37:34;15.00;14.00;11.00
77411;PMS7003;66484;49.968;19.140;2023-05-16T13:40:02;13.50;13.50;12.00
77411;PMS7003;66484;49.968;19.140;2023-05-16T13:42:32;17.00;16.00;12.00
77411;PMS7003;66484;49.968;19.140;2023-05-16T13:45:00;18.00;18.00;13.00
77411;PMS7003;66484;49.968;19.140;2023-05-16T13:47:27;12.25;12.25;11.00
77411;PMS7003;66484;49.968;19.140;2023-05-16T13:49:56;18.25;15.25;11.50
77411;PMS7003;66484;49.968;19.140;2023-05-16T13:52:24;14.75;14.50;11.50
77411;PMS7003;66484;49.968;19.140;2023-05-16T13:54:52;18.50;16.75;12.75
77411;PMS7003;66484;49.968;19.140;2023-05-16T13:57:20;14.25;13.25;9.00
77411;PMS7003;66484;49.968;19.140;2023-05-16T13:59:50;17.25;16.50;13.75
77411;PMS7003;66484;49.968;19.140;2023-05-16T14:02:20;15.50;14.25;10.75
77411;PMS7003;66484;49.968;19.140;2023-05-16T14:04:48;16.50;16.50;12.25
77411;PMS7003;66484;49.968;19.140;2023-05-16T14:07:16;19.25;17.75;12.50
77411;PMS7003;66484;49.968;19.140;2023-05-16T14:09:43;19.25;17.25;11.50
77411;PMS7003;66484;49.968;19.140;2023-05-16T14:12:11;16.50;16.00;12.50
77411;PMS7003;66484;49.968;19.140;2023-05-16T14:14:39;17.50;16.75;11.50
77411;PMS7003;66484;49.968;19.140;2023-05-16T14:17:07;19.50;18.00;12.75
77411;PMS7003;66484;49.968;19.140;2023-05-16T14:19:34;13.75;13.75;11.75
77411;PMS7003;66484;49.968;19.140;2023-05-16T14:22:02;22.00;21.50;15.50
77411;PMS7003;66484;49.968;19.140;2023-05-16T14:24:30;14.50;14.25;11.00